Time;durP1;ratioP1;P1;durP2;ratioP2;P2;SDS_P1;SDS_P2;PMS_P1;PMS_P2;Temp;Humidity;BMP_temperature;BMP_pressure;BME280_temperature;BME280_humidity;BME280_pressure;Samples;Min_cycle;Max_cycle;Signal;HPM_P1;HPM_P2
2021/04/15 00:02:00;;;;;;;4.72;1.30;;;23.10;53.40;;;;;;5062280;28;20047;-60
2021/04/15 00:04:36;;;;;;;4.30;1.40;;;23.20;52.80;;;;;;5067257;28;20328;-57
2021/04/15 00:07:09;;;;;;;4.28;1.20;;;23.30;53.30;;;;;;5067697;28;20044;-64
2021/04/15 00:09:37;;;;;;;1.73;1.08;;;23.30;54.20;;;;;;5066354;28;20482;-60
2021/04/15 00:12:05;;;;;;;4.55;1.92;;;23.40;54.10;;;;;;5061673;28;20048;-53
2021/04/15 00:14:35;;;;;;;2.65;1.40;;;23.50;51.80;;;;;;5066901;28;20021;-58
2021/04/15 00:17:16;;;;;;;2.53;1.35;;;23.50;52.60;;;;;;5067867;28;20103;-59
2021/04/15 00:19:49;;;;;;;8.02;1.50;;;23.60;51.90;;;;;;5064603;28;20555;-58
2021/04/15 00:22:17;;;;;;;4.88;1.50;;;23.70;51.20;;;;;;5058675;28;20032;-61
2021/04/15 00:24:44;;;;;;;7.10;1.40;;;23.80;51.10;;;;;;5068644;28;20052;-57
2021/04/15 00:27:15;;;;;;;2.83;1.27;;;23.80;52.20;;;;;;5068623;28;20036;-65
2021/04/15 00:29:42;;;;;;;5.47;1.75;;;23.80;51.00;;;;;;5068762;28;20028;-58
2021/04/15 00:32:15;;;;;;;2.20;1.15;;;23.80;53.10;;;;;;5068621;28;20437;-65
2021/04/15 00:35:08;;;;;;;5.03;1.90;;;23.90;50.90;;;;;;5068675;28;20021;-63
2021/04/15 00:37:36;;;;;;;3.75;1.50;;;23.90;52.80;;;;;;5066564;28;20478;-65
2021/04/15 00:40:07;;;;;;;6.00;1.67;;;24.00;52.50;;;;;;5067560;28;20069;-55
2021/04/15 00:42:36;;;;;;;3.28;1.40;;;24.00;50.30;;;;;;5071602;28;20039;-69
2021/04/15 00:45:13;;;;;;;4.63;1.30;;;24.10;51.70;;;;;;5071817;28;20093;-64
2021/04/15 00:47:44;;;;;;;4.30;1.65;;;24.00;50.80;;;;;;5072155;28;20028;-62
2021/04/15 00:50:36;;;;;;;5.38;1.40;;;24.00;50.70;;;;;;5071863;28;20028;-57
2021/04/15 00:53:23;;;;;;;3.40;1.70;;;24.10;51.20;;;;;;5072085;28;20078;-60
2021/04/15 00:55:58;;;;;;;1.92;1.15;;;24.20;49.50;;;;;;5071771;28;20039;-61
2021/04/15 00:58:31;;;;;;;5.50;1.40;;;24.20;49.90;;;;;;5072075;28;20020;-64
2021/04/15 01:01:02;;;;;;;3.53;1.42;;;24.20;49.70;;;;;;5072063;28;20035;-67
2021/04/15 01:03:39;;;;;;;2.57;1.33;;;24.20;50.30;;;;;;5072011;28;20046;-67
2021/04/15 01:06:11;;;;;;;3.88;1.40;;;24.30;50.10;;;;;;5071871;28;20047;-65
2021/04/15 01:08:44;;;;;;;7.32;1.38;;;24.40;49.90;;;;;;5071329;28;20029;-57
2021/04/15 01:11:26;;;;;;;2.83;1.10;;;24.40;49.90;;;;;;5071577;28;20110;-57
2021/04/15 01:14:22;;;;;;;4.68;1.38;;;24.40;51.00;;;;;;5071501;28;20044;-64
2021/04/15 01:17:16;;;;;;;6.00;1.83;;;24.50;49.40;;;;;;5071438;28;20089;-62
2021/04/15 01:20:05;;;;;;;5.80;1.30;;;24.50;51.40;;;;;;5071433;28;20506;-63
2021/04/15 01:22:44;;;;;;;4.30;1.20;;;24.60;49.00;;;;;;5071560;28;20608;-65
2021/04/15 01:25:36;;;;;;;3.72;1.27;;;24.50;51.40;;;;;;5071348;28;20036;-65
2021/04/15 01:28:18;;;;;;;3.83;1.20;;;24.60;51.90;;;;;;5071246;28;20021;-68
2021/04/15 01:30:58;;;;;;;2.38;1.10;;;24.60;52.10;;;;;;5071320;28;20036;-65
2021/04/15 01:33:57;;;;;;;4.45;1.30;;;24.60;51.60;;;;;;5071649;28;20028;-65
2021/04/15 01:36:46;;;;;;;5.88;2.38;;;24.60;50.80;;;;;;5071328;28;20032;-61
2021/04/15 01:39:19;;;;;;;3.13;1.20;;;24.70;51.50;;;;;;5071526;28;20854;-64
2021/04/15 01:42:00;;;;;;;4.30;1.30;;;24.80;51.90;;;;;;5069792;28;20444;-61
2021/04/15 01:44:43;;;;;;;8.57;1.75;;;24.70;49.90;;;;;;5071001;28;20047;-68
2021/04/15 01:47:19;;;;;;;3.10;1.67;;;24.80;49.20;;;;;;5070040;28;20028;-64
2021/04/15 01:50:03;;;;;;;5.40;1.58;;;24.90;50.60;;;;;;5071902;28;20036;-67
2021/04/15 01:52:53;;;;;;;9.23;1.45;;;24.70;51.40;;;;;;5070644;28;20068;-64
2021/04/15 01:55:38;;;;;;;4.10;1.45;;;24.70;51.40;;;;;;5071729;28;20021;-61
2021/04/15 01:58:26;;;;;;;4.80;1.45;;;24.80;52.00;;;;;;5071950;28;20051;-66
2021/04/15 02:01:03;;;;;;;5.53;1.30;;;24.70;52.30;;;;;;5071818;28;20032;-64
2021/04/15 02:03:40;;;;;;;3.08;1.50;;;24.80;50.70;;;;;;5072991;28;20033;-67
2021/04/15 02:06:24;;;;;;;3.25;1.55;;;24.70;52.30;;;;;;5072173;28;20470;-65
2021/04/15 02:09:02;;;;;;;3.55;1.23;;;24.60;51.60;;;;;;5073240;28;20027;-67
2021/04/15 02:11:39;;;;;;;1.98;0.90;;;24.90;51.00;;;;;;5073367;28;20040;-64
2021/04/15 02:14:14;;;;;;;5.78;1.42;;;24.80;51.60;;;;;;5072513;28;20087;-66
2021/04/15 02:16:50;;;;;;;2.60;1.33;;;25.00;48.70;;;;;;5054858;28;20028;-65
2021/04/15 02:19:37;;;;;;;3.92;1.42;;;25.00;51.00;;;;;;5070630;28;20059;-68
2021/04/15 02:22:11;;;;;;;4.95;1.60;;;24.90;49.10;;;;;;5070160;28;20478;-61
2021/04/15 02:24:58;;;;;;;3.00;1.13;;;25.00;50.90;;;;;;5068830;28;20032;-65
2021/04/15 02:27:46;;;;;;;4.40;1.45;;;24.90;50.20;;;;;;5070203;28;20021;-63
2021/04/15 02:30:23;;;;;;;2.50;1.20;;;25.00;51.20;;;;;;5061411;28;20105;-60
2021/04/15 02:33:16;;;;;;;3.78;1.58;;;25.00;51.10;;;;;;5069167;28;20128;-62
2021/04/15 02:35:47;;;;;;;2.40;1.27;;;24.90;50.70;;;;;;5060540;28;20041;-56
2021/04/15 02:38:21;;;;;;;2.60;1.35;;;25.10;50.20;;;;;;5066878;28;20036;-58
2021/04/15 02:41:06;;;;;;;2.55;1.23;;;25.10;50.60;;;;;;5066011;28;20045;-58
2021/04/15 02:43:42;;;;;;;4.00;1.40;;;25.10;50.40;;;;;;5069151;28;20021;-57
2021/04/15 02:46:37;;;;;;;5.30;1.50;;;25.20;50.10;;;;;;5068297;28;20577;-54
2021/04/15 02:49:17;;;;;;;2.95;1.20;;;25.20;49.30;;;;;;5061090;28;20048;-58
2021/04/15 02:52:05;;;;;;;6.43;1.10;;;25.20;50.50;;;;;;5066651;28;20046;-59
2021/04/15 02:55:04;;;;;;;10.32;1.80;;;25.30;50.40;;;;;;5068462;28;20020;-60
2021/04/15 02:57:45;;;;;;;3.60;1.27;;;25.40;48.70;;;;;;5043150;28;20037;-61
2021/04/15 03:00:30;;;;;;;3.87;1.50;;;25.50;47.90;;;;;;5066147;28;20093;-55
2021/04/15 03:03:06;;;;;;;6.05;1.70;;;25.50;49.70;;;;;;5064940;28;20151;-59
2021/04/15 03:06:16;;;;;;;4.97;1.73;;;25.60;47.30;;;;;;5067383;28;20051;-64
2021/04/15 03:08:46;;;;;;;4.70;1.58;;;25.60;46.30;;;;;;5063589;28;20756;-52
2021/04/15 03:11:28;;;;;;;3.15;1.30;;;25.80;47.80;;;;;;5068611;28;20437;-59
2021/04/15 03:14:03;;;;;;;3.35;1.38;;;25.90;47.40;;;;;;5068179;28;20128;-59
2021/04/15 03:16:38;;;;;;;8.77;1.65;;;26.00;45.80;;;;;;5064425;28;20106;-61
2021/04/15 03:19:18;;;;;;;4.63;1.42;;;26.10;48.70;;;;;;5062917;28;20032;-51
2021/04/15 03:22:14;;;;;;;3.70;1.38;;;26.10;48.60;;;;;;5067381;28;20473;-59
2021/04/15 03:25:04;;;;;;;2.00;1.00;;;26.20;48.10;;;;;;5066654;28;20021;-57
2021/04/15 03:27:57;;;;;;;5.88;1.02;;;26.30;48.40;;;;;;5063208;28;20064;-57
2021/04/15 03:30:56;;;;;;;5.13;1.30;;;26.40;48.30;;;;;;5065778;28;20068;-56
2021/04/15 03:33:36;;;;;;;3.22;1.60;;;26.40;47.30;;;;;;5066162;28;20043;-58
2021/04/15 03:36:14;;;;;;;3.13;1.15;;;26.50;48.30;;;;;;5067598;28;20025;-61
2021/04/15 03:38:52;;;;;;;4.53;1.40;;;26.50;48.70;;;;;;5063240;28;20135;-59
2021/04/15 03:41:32;;;;;;;5.78;1.58;;;26.50;47.50;;;;;;5067871;28;20029;-58
2021/04/15 03:44:20;;;;;;;4.38;1.20;;;26.50;47.30;;;;;;5067175;28;20059;-57
2021/04/15 03:47:03;;;;;;;2.58;1.20;;;26.50;48.10;;;;;;5063742;28;20029;-57
2021/04/15 03:50:05;;;;;;;4.00;1.75;;;26.70;48.60;;;;;;5046831;28;20083;-63
2021/04/15 03:52:42;;;;;;;3.92;1.45;;;26.90;46.90;;;;;;5038546;28;20053;-59
2021/04/15 03:55:53;;;;;;;4.00;1.40;;;26.90;46.30;;;;;;5047631;28;20311;-64
2021/04/15 03:58:32;;;;;;;5.80;1.50;;;27.00;46.70;;;;;;4986771;28;20089;-57
2021/04/15 04:01:11;;;;;;;4.90;1.30;;;26.90;46.30;;;;;;4987030;28;20444;-66
2021/04/15 04:03:43;;;;;;;5.78;1.20;;;27.00;47.30;;;;;;5029731;28;20045;-61
2021/04/15 04:06:24;;;;;;;1.58;1.13;;;26.90;46.70;;;;;;5047756;28;20036;-61
2021/04/15 04:09:13;;;;;;;5.18;1.20;;;27.00;45.50;;;;;;5048545;28;20029;-59
2021/04/15 04:11:44;;;;;;;3.80;1.30;;;27.10;45.50;;;;;;5048955;28;20149;-63
2021/04/15 04:14:27;;;;;;;10.10;1.53;;;27.20;46.90;;;;;;5048366;28;20085;-61
2021/04/15 04:17:20;;;;;;;5.93;1.83;;;27.00;47.90;;;;;;5051262;28;20262;-61
2021/04/15 04:19:49;;;;;;;4.30;1.30;;;26.90;47.80;;;;;;5053063;28;20083;-62
2021/04/15 04:23:02;;;;;;;4.65;1.38;;;27.20;46.30;;;;;;5052989;28;20035;-63
2021/04/15 04:25:53;;;;;;;5.05;1.45;;;27.30;48.00;;;;;;5050465;28;20040;-58
2021/04/15 04:28:35;;;;;;;6.28;1.30;;;27.10;46.30;;;;;;5053027;28;20479;-56
2021/04/15 04:31:38;;;;;;;4.75;1.60;;;27.10;47.30;;;;;;5052829;28;20044;-60
2021/04/15 04:34:07;;;;;;;2.08;1.05;;;27.00;47.90;;;;;;5054306;28;20040;-56
2021/04/15 04:36:36;;;;;;;4.22;1.40;;;27.00;47.70;;;;;;5052538;28;20048;-58
2021/04/15 04:39:06;;;;;;;5.10;1.25;;;27.10;48.20;;;;;;5052487;28;20035;-53
2021/04/15 04:42:02;;;;;;;3.78;1.50;;;27.00;48.20;;;;;;5052706;28;20185;-55
2021/04/15 04:45:08;;;;;;;4.13;1.20;;;27.10;47.20;;;;;;5051153;28;20037;-58
2021/04/15 04:47:59;;;;;;;3.45;1.33;;;27.30;46.60;;;;;;5055814;28;20042;-59
2021/04/15 04:50:49;;;;;;;5.82;1.63;;;27.20;45.80;;;;;;5072705;28;20025;-60
2021/04/15 04:53:41;;;;;;;5.05;1.08;;;27.40;47.00;;;;;;5070631;28;20439;-63
2021/04/15 04:56:39;;;;;;;4.55;1.40;;;27.40;45.90;;;;;;5072470;28;20024;-57
2021/04/15 04:59:29;;;;;;;6.18;1.90;;;27.40;47.10;;;;;;5071877;28;20067;-61
2021/04/15 05:01:57;;;;;;;2.75;1.15;;;27.60;44.70;;;;;;5072141;28;20510;-59
2021/04/15 05:04:30;;;;;;;8.35;1.10;;;27.60;45.30;;;;;;5072015;28;20037;-64
2021/04/15 05:07:12;;;;;;;5.50;1.10;;;27.50;47.00;;;;;;5072091;28;20103;-59
2021/04/15 05:09:43;;;;;;;3.30;1.02;;;27.40;47.20;;;;;;5070448;28;20501;-65
2021/04/15 05:12:29;;;;;;;6.35;1.40;;;27.40;47.20;;;;;;5072047;28;20102;-67
2021/04/15 05:14:58;;;;;;;2.85;1.33;;;27.50;46.80;;;;;;5065592;28;20112;-61
2021/04/15 05:17:41;;;;;;;3.70;1.40;;;27.50;47.20;;;;;;5062920;28;20094;-61
2021/04/15 05:20:16;;;;;;;8.07;1.98;;;27.50;46.90;;;;;;5057504;28;20056;-57
2021/04/15 05:22:47;;;;;;;5.88;1.60;;;27.60;44.20;;;;;;5067098;28;20496;-59
2021/04/15 05:25:22;;;;;;;4.82;1.48;;;27.50;46.50;;;;;;5073743;28;20086;-59
2021/04/15 05:28:00;;;;;;;4.03;1.38;;;27.40;46.30;;;;;;5068689;28;20425;-63
2021/04/15 05:30:56;;;;;;;4.03;1.33;;;27.50;45.10;;;;;;5069602;28;20033;-61
2021/04/15 05:33:26;;;;;;;2.65;1.10;;;27.50;46.50;;;;;;5042442;28;20269;-59
2021/04/15 05:36:11;;;;;;;4.30;1.27;;;27.30;47.00;;;;;;5070355;28;20387;-64
2021/04/15 05:38:57;;;;;;;5.55;1.55;;;27.10;46.70;;;;;;5069159;28;20025;-56
2021/04/15 05:41:28;;;;;;;5.43;1.20;;;26.90;45.60;;;;;;5062612;28;20028;-58
2021/04/15 05:44:03;;;;;;;3.45;1.23;;;26.80;47.10;;;;;;5069630;28;20111;-58
2021/04/15 05:46:40;;;;;;;5.50;1.52;;;26.70;48.50;;;;;;5070174;28;20025;-53
2021/04/15 05:49:14;;;;;;;6.78;1.45;;;26.60;47.00;;;;;;5067936;28;20040;-56
2021/04/15 05:51:56;;;;;;;4.57;1.40;;;26.60;47.20;;;;;;5060859;28;20048;-59
2021/04/15 05:54:24;;;;;;;2.85;1.23;;;26.40;47.10;;;;;;5070066;28;20042;-59
2021/04/15 05:56:57;;;;;;;7.07;1.55;;;26.30;49.60;;;;;;5069799;28;20051;-59
2021/04/15 05:59:44;;;;;;;9.95;1.55;;;26.30;49.30;;;;;;5068646;28;20062;-61
2021/04/15 06:02:37;;;;;;;6.13;2.05;;;26.10;46.50;;;;;;5064998;28;20040;-59
2021/04/15 06:05:19;;;;;;;4.13;1.30;;;26.10;48.90;;;;;;5068838;28;20043;-62
2021/04/15 06:07:50;;;;;;;4.05;1.23;;;26.00;50.80;;;;;;5065028;28;20067;-62
2021/04/15 06:10:24;;;;;;;4.18;1.30;;;26.00;50.50;;;;;;5068950;28;20178;-58
2021/04/15 06:13:00;;;;;;;4.43;2.20;;;26.00;48.70;;;;;;5062599;28;20398;-62
2021/04/15 06:15:37;;;;;;;5.60;1.50;;;26.10;48.60;;;;;;5069836;28;20032;-58
2021/04/15 06:18:56;;;;;;;4.32;1.30;;;26.00;50.00;;;;;;5068573;28;20037;-60
2021/04/15 06:21:34;;;;;;;4.35;1.40;;;25.90;49.70;;;;;;4959870;28;20039;-59
2021/04/15 06:24:18;;;;;;;4.30;1.25;;;25.90;48.80;;;;;;5054836;28;20418;-57
2021/04/15 06:27:20;;;;;;;5.18;1.50;;;26.00;49.40;;;;;;5069360;28;20147;-57
2021/04/15 06:30:07;;;;;;;2.92;1.02;;;26.00;49.70;;;;;;5052374;28;20117;-62
2021/04/15 06:32:56;;;;;;;4.07;1.08;;;25.90;50.30;;;;;;5063854;28;20180;-63
2021/04/15 06:35:30;;;;;;;2.83;0.98;;;25.90;50.50;;;;;;5067591;28;20510;-59
2021/04/15 06:38:30;;;;;;;5.13;1.05;;;25.80;49.60;;;;;;5068328;28;20111;-61
2021/04/15 06:41:23;;;;;;;7.32;1.15;;;25.80;50.90;;;;;;5049778;28;20035;-58
2021/04/15 06:44:21;;;;;;;4.70;1.52;;;25.80;49.00;;;;;;5068013;28;20024;-59
2021/04/15 06:47:09;;;;;;;4.80;1.20;;;25.70;48.80;;;;;;5068676;28;20481;-54
2021/04/15 06:50:13;;;;;;;10.32;2.75;;;25.60;49.90;;;;;;5064605;28;20131;-62
2021/04/15 06:53:11;;;;;;;5.68;1.45;;;25.60;51.40;;;;;;5061489;28;20036;-62
2021/04/15 06:56:10;;;;;;;5.35;1.27;;;25.50;51.60;;;;;;5066985;28;20138;-61
2021/04/15 06:59:15;;;;;;;3.53;1.35;;;25.30;51.50;;;;;;5029577;28;20063;-54
2021/04/15 07:02:07;;;;;;;2.97;1.35;;;25.20;52.40;;;;;;5049816;28;20112;-60
2021/04/15 07:04:52;;;;;;;3.40;1.63;;;25.10;52.30;;;;;;5049498;28;20087;-62
2021/04/15 07:07:38;;;;;;;5.50;1.20;;;25.10;52.20;;;;;;5049581;28;20124;-60
2021/04/15 07:10:26;;;;;;;4.82;1.38;;;25.00;52.70;;;;;;5049541;28;20448;-53
2021/04/15 07:13:22;;;;;;;3.22;1.02;;;25.00;53.10;;;;;;5049446;28;20090;-62
2021/04/15 07:15:59;;;;;;;5.17;1.30;;;24.80;53.30;;;;;;5049900;28;20028;-64
2021/04/15 07:18:57;;;;;;;6.30;1.30;;;24.70;53.60;;;;;;5048646;28;20037;-65
2021/04/15 07:21:37;;;;;;;19.98;3.17;;;24.60;54.60;;;;;;5064726;28;20409;-64
2021/04/15 07:24:10;;;;;;;13.93;2.35;;;24.50;55.80;;;;;;5049913;28;20071;-64
2021/04/15 07:26:50;;;;;;;8.13;3.83;;;24.60;56.60;;;;;;5047645;28;20391;-62
2021/04/15 07:29:35;;;;;;;4.70;2.38;;;24.30;55.60;;;;;;5049592;28;20099;-63
2021/04/15 07:32:27;;;;;;;11.23;2.72;;;24.20;55.70;;;;;;5048925;28;20071;-64
2021/04/15 07:38:53;;;;;;;5.90;3.63;;;24.10;57.60;;;;;;5065691;28;20442;-60
2021/04/15 07:41:39;;;;;;;12.07;3.13;;;24.10;58.60;;;;;;5053583;28;20112;-59
2021/04/15 07:44:30;;;;;;;11.38;4.93;;;24.10;59.40;;;;;;5069627;28;20029;-59
2021/04/15 07:47:14;;;;;;;18.45;4.20;;;24.00;60.10;;;;;;5066681;28;20025;-63
2021/04/15 07:50:18;;;;;;;8.77;3.67;;;24.10;60.80;;;;;;5061484;28;20024;-60
2021/04/15 07:53:09;;;;;;;8.05;2.63;;;24.10;60.80;;;;;;5066127;28;20064;-61
2021/04/15 07:55:48;;;;;;;11.90;3.08;;;23.90;61.30;;;;;;5069748;28;20031;-64
2021/04/15 07:58:31;;;;;;;9.95;5.00;;;23.80;61.40;;;;;;5073953;28;20104;-67
2021/04/15 08:01:15;;;;;;;13.35;8.57;;;23.80;60.10;;;;;;5093045;28;20016;-62
2021/04/15 08:03:58;;;;;;;19.15;4.68;;;23.90;59.90;;;;;;5092934;28;20058;-62
2021/04/15 08:07:02;;;;;;;9.57;3.97;;;23.90;61.40;;;;;;5091859;28;20027;-60
2021/04/15 08:09:51;;;;;;;9.20;4.55;;;24.00;60.00;;;;;;5092265;28;20142;-55
2021/04/15 08:12:23;;;;;;;11.60;4.60;;;24.00;60.10;;;;;;5092194;28;20093;-60
2021/04/15 08:15:27;;;;;;;9.30;4.05;;;24.10;60.30;;;;;;5092351;28;20127;-57
2021/04/15 08:18:21;;;;;;;10.90;4.30;;;24.10;60.40;;;;;;5092515;28;20048;-58
2021/04/15 08:21:00;;;;;;;11.10;3.83;;;24.10;60.50;;;;;;5090049;28;20028;-59
2021/04/15 08:23:43;;;;;;;12.02;3.97;;;24.10;60.70;;;;;;5092565;28;20028;-58
2021/04/15 08:26:51;;;;;;;7.78;3.95;;;24.10;60.90;;;;;;5090740;28;20112;-55
2021/04/15 08:29:55;;;;;;;20.38;5.15;;;24.00;60.70;;;;;;5084186;28;20036;-54
2021/04/15 08:32:32;;;;;;;19.58;4.65;;;24.10;61.30;;;;;;5091914;28;20036;-59
2021/04/15 08:35:55;;;;;;;13.35;4.90;;;24.10;61.70;;;;;;5092203;28;20094;-54
2021/04/15 08:39:20;;;;;;;8.57;4.10;;;24.00;61.80;;;;;;5092476;28;20020;-58
2021/04/15 08:42:02;;;;;;;13.85;4.25;;;23.90;62.60;;;;;;5029652;28;20037;-57
2021/04/15 08:44:34;;;;;;;;;;;23.90;62.50;;;;;;5029966;28;20026;-60
2021/04/15 08:47:20;;;;;;;14.85;3.05;;;23.90;62.40;;;;;;5068347;28;19908;-58
2021/04/15 08:50:13;;;;;;;15.02;4.63;;;23.90;61.20;;;;;;5070084;28;20051;-58
2021/04/15 08:53:06;;;;;;;9.98;3.75;;;23.90;59.70;;;;;;5071818;28;20717;-63
2021/04/15 08:55:49;;;;;;;12.50;5.85;;;23.90;55.30;;;;;;5063703;28;20115;-62
2021/04/15 08:58:53;;;;;;;13.23;5.72;;;23.90;54.40;;;;;;5071966;28;20037;-62
2021/04/15 09:01:44;;;;;;;11.55;5.93;;;23.90;54.90;;;;;;5071834;28;20032;-62
2021/04/15 09:04:23;;;;;;;16.07;8.83;;;23.90;55.30;;;;;;5071996;28;20025;-56
2021/04/15 09:07:16;;;;;;;14.95;6.22;;;24.00;60.40;;;;;;5071821;28;20029;-63
2021/04/15 09:10:23;;;;;;;13.07;7.57;;;23.90;59.00;;;;;;5073319;28;20052;-64
2021/04/15 09:12:59;;;;;;;16.15;6.38;;;23.90;62.10;;;;;;5074350;28;20036;-61
2021/04/15 09:15:45;;;;;;;12.20;7.63;;;23.90;57.10;;;;;;5072881;28;20024;-65
2021/04/15 09:18:56;;;;;;;14.25;8.10;;;23.90;58.80;;;;;;5070199;28;20066;-64
2021/04/15 09:21:54;;;;;;;18.95;9.10;;;24.00;57.20;;;;;;5037642;28;20052;-63
2021/04/15 09:24:36;;;;;;;10.88;4.90;;;24.00;62.30;;;;;;5071495;28;20032;-61
2021/04/15 09:27:25;;;;;;;16.27;9.98;;;23.90;56.50;;;;;;5072121;28;20032;-59
2021/04/15 09:30:29;;;;;;;13.88;8.90;;;23.90;62.00;;;;;;5071952;28;20025;-60
2021/04/15 09:33:14;;;;;;;39.13;9.20;;;23.90;56.70;;;;;;5062134;28;20044;-67
2021/04/15 09:36:04;;;;;;;20.70;11.98;;;23.90;63.40;;;;;;5066978;28;20088;-60
2021/04/15 09:39:10;;;;;;;19.65;8.70;;;23.90;57.90;;;;;;5072384;28;20538;-59
2021/04/15 09:41:48;;;;;;;11.10;6.20;;;23.90;58.40;;;;;;5064775;28;20151;-67
2021/04/15 09:44:28;;;;;;;15.57;4.95;;;23.80;58.30;;;;;;5063698;28;20390;-64
2021/04/15 09:47:23;;;;;;;12.60;6.03;;;23.80;55.60;;;;;;5067283;28;20025;-68
2021/04/15 09:50:02;;;;;;;13.40;5.43;;;23.70;55.20;;;;;;5068591;28;20048;-67
2021/04/15 09:52:38;;;;;;;11.13;5.50;;;23.70;59.40;;;;;;5067899;28;20111;-71
2021/04/15 09:55:14;;;;;;;17.50;5.00;;;23.60;57.30;;;;;;5064194;28;20083;-70
2021/04/15 09:58:23;;;;;;;16.83;4.70;;;23.70;60.90;;;;;;5067334;28;20736;-68
2021/04/15 10:00:55;;;;;;;16.70;4.88;;;23.60;56.90;;;;;;5040576;28;20041;-63
2021/04/15 10:03:30;;;;;;;12.95;3.80;;;23.60;56.30;;;;;;5065313;28;20028;-62
2021/04/15 10:06:18;;;;;;;6.05;3.33;;;23.60;54.00;;;;;;5068236;28;20020;-64
2021/04/15 10:08:58;;;;;;;13.77;4.05;;;23.50;53.60;;;;;;5067061;28;20055;-65
2021/04/15 10:11:42;;;;;;;10.70;3.13;;;23.50;57.10;;;;;;5067859;28;20032;-60
2021/04/15 10:14:49;;;;;;;12.10;3.72;;;23.50;52.30;;;;;;5064189;28;20036;-62
2021/04/15 10:17:22;;;;;;;9.50;3.33;;;23.50;56.80;;;;;;5069300;28;20028;-68
2021/04/15 10:20:16;;;;;;;10.05;3.70;;;23.50;55.20;;;;;;5066750;28;20025;-67
2021/04/15 10:23:08;;;;;;;13.07;3.45;;;23.40;55.20;;;;;;5066305;28;20040;-68
2021/04/15 10:25:46;;;;;;;9.70;3.07;;;23.40;53.80;;;;;;5050802;28;20543;-61
2021/04/15 10:28:33;;;;;;;8.82;3.28;;;23.40;50.30;;;;;;5050446;28;20830;-51
2021/04/15 10:31:33;;;;;;;13.23;2.80;;;23.40;50.30;;;;;;5065161;28;20059;-51
2021/04/15 10:34:34;;;;;;;9.38;2.38;;;23.40;51.20;;;;;;5050058;28;20115;-57
2021/04/15 10:37:15;;;;;;;10.80;2.97;;;23.40;54.30;;;;;;5050224;28;20021;-63
2021/04/15 10:40:08;;;;;;;11.82;3.80;;;23.30;52.70;;;;;;5050061;28;20033;-61
2021/04/15 10:42:51;;;;;;;7.30;3.38;;;23.30;55.10;;;;;;5049587;28;20051;-56
2021/04/15 10:45:29;;;;;;;7.25;3.28;;;23.20;56.30;;;;;;5052138;28;20125;-57
2021/04/15 10:48:09;;;;;;;14.63;3.17;;;23.20;55.00;;;;;;5068812;28;20072;-61
2021/04/15 10:51:07;;;;;;;6.97;3.20;;;23.10;57.40;;;;;;5069269;28;20035;-57
2021/04/15 10:53:57;;;;;;;14.23;3.33;;;23.10;57.50;;;;;;5040118;28;20043;-57
2021/04/15 10:56:27;;;;;;;16.52;4.35;;;23.10;57.00;;;;;;5064743;28;20028;-55
2021/04/15 10:59:01;;;;;;;10.43;3.05;;;23.10;58.90;;;;;;5068013;28;20028;-60
2021/04/15 11:01:39;;;;;;;6.93;2.95;;;23.10;59.60;;;;;;5068253;28;20028;-55
2021/04/15 11:04:09;;;;;;;7.00;3.05;;;23.10;58.90;;;;;;5066724;28;20063;-59
2021/04/15 11:06:50;;;;;;;6.20;3.15;;;23.10;59.40;;;;;;5066577;28;20412;-58
2021/04/15 11:09:33;;;;;;;9.88;2.95;;;23.10;59.50;;;;;;5067423;28;20455;-62
2021/04/15 11:12:19;;;;;;;5.80;2.92;;;23.00;59.20;;;;;;5065482;28;20623;-58
2021/04/15 11:14:47;;;;;;;8.63;3.15;;;23.00;59.30;;;;;;5062823;28;20040;-62
2021/04/15 11:17:19;;;;;;;8.18;3.13;;;23.00;59.50;;;;;;5067617;28;20036;-60
2021/04/15 11:19:46;;;;;;;;;;;23.00;59.70;;;;;;5068049;28;20028;-61
2021/04/15 11:22:32;;;;;;;8.73;3.17;;;23.00;59.30;;;;;;5067667;28;19977;-59
2021/04/15 11:25:21;;;;;;;7.90;3.08;;;23.00;59.70;;;;;;5062053;28;20488;-57
2021/04/15 11:27:51;;;;;;;8.38;3.33;;;22.90;59.80;;;;;;5066254;28;20059;-60
2021/04/15 11:30:36;;;;;;;6.72;2.70;;;22.90;60.00;;;;;;5066301;28;20020;-61
2021/04/15 11:33:07;;;;;;;8.52;3.28;;;22.90;60.20;;;;;;5065680;28;20051;-61
2021/04/15 11:35:34;;;;;;;10.77;2.92;;;22.90;60.30;;;;;;5062364;28;20152;-59
2021/04/15 11:38:24;;;;;;;22.17;3.42;;;22.80;60.00;;;;;;5067663;28;20024;-61
2021/04/15 11:40:53;;;;;;;5.70;2.40;;;22.80;60.70;;;;;;5069242;28;20033;-56
2021/04/15 11:43:33;;;;;;;6.78;2.60;;;22.90;59.90;;;;;;5067944;28;20043;-59
2021/04/15 11:46:27;;;;;;;4.65;2.58;;;22.80;59.50;;;;;;5058614;28;20055;-57
2021/04/15 11:49:29;;;;;;;7.78;2.55;;;22.80;60.10;;;;;;5067538;28;20031;-55
2021/04/15 11:52:14;;;;;;;8.52;3.30;;;22.80;60.20;;;;;;5067523;28;20509;-55
2021/04/15 11:54:53;;;;;;;7.30;2.80;;;22.80;60.00;;;;;;5062330;28;20032;-57
2021/04/15 11:57:21;;;;;;;9.73;3.63;;;22.80;59.90;;;;;;5066430;28;20025;-58
2021/04/15 11:59:59;;;;;;;4.80;2.40;;;22.80;59.60;;;;;;5067604;28;20037;-57
2021/04/15 12:02:38;;;;;;;6.20;2.90;;;22.80;60.90;;;;;;5066670;28;20033;-63
2021/04/15 12:05:33;;;;;;;7.03;2.03;;;22.70;61.30;;;;;;5062315;28;20035;-64
2021/04/15 12:08:02;;;;;;;5.13;2.50;;;22.70;60.10;;;;;;5067419;28;20489;-61
2021/04/15 12:10:39;;;;;;;12.35;3.13;;;22.70;60.20;;;;;;5066386;28;20052;-60
2021/04/15 12:13:31;;;;;;;8.38;2.72;;;22.70;60.60;;;;;;5065326;28;20036;-64
2021/04/15 12:16:09;;;;;;;3.30;2.28;;;22.70;60.80;;;;;;5045752;28;20364;-61
2021/04/15 12:18:42;;;;;;;5.82;3.10;;;22.60;60.50;;;;;;5067070;28;20376;-60
2021/04/15 12:21:28;;;;;;;5.22;2.28;;;22.60;59.90;;;;;;5065704;28;20633;-54
2021/04/15 12:24:00;;;;;;;10.55;2.33;;;22.60;61.00;;;;;;5065526;28;20036;-58
2021/04/15 12:26:39;;;;;;;5.40;2.50;;;22.60;61.20;;;;;;5067342;28;20021;-58
2021/04/15 12:29:06;;;;;;;8.40;2.83;;;22.50;60.40;;;;;;5068616;28;20497;-61
2021/04/15 12:32:12;;;;;;;7.43;2.42;;;22.50;60.30;;;;;;5068508;28;20040;-58
2021/04/15 12:34:39;;;;;;;5.80;2.72;;;22.50;61.10;;;;;;5005607;28;20552;-58
2021/04/15 12:37:17;;;;;;;6.25;2.67;;;22.40;61.10;;;;;;5058810;28;20040;-61
2021/04/15 12:40:03;;;;;;;12.23;2.55;;;22.40;60.50;;;;;;5072336;28;20028;-59
2021/04/15 12:42:36;;;;;;;7.60;2.85;;;22.30;60.60;;;;;;5070210;28;20028;-59
2021/04/15 12:45:34;;;;;;;5.43;2.88;;;22.30;60.50;;;;;;5072117;28;20036;-60
2021/04/15 12:48:05;;;;;;;7.10;2.67;;;22.30;61.00;;;;;;5062774;28;20043;-61
2021/04/15 12:50:33;;;;;;;6.05;2.60;;;22.30;60.30;;;;;;5070895;28;20059;-61
2021/04/15 12:53:03;;;;;;;6.65;3.00;;;22.20;59.00;;;;;;5071559;28;20047;-62
2021/04/15 12:55:31;;;;;;;9.07;2.97;;;22.20;61.20;;;;;;5070500;28;20027;-60
2021/04/15 12:58:01;;;;;;;5.35;2.85;;;22.20;59.70;;;;;;5071684;28;20483;-61
2021/04/15 13:00:46;;;;;;;7.80;2.63;;;22.20;61.10;;;;;;5070029;28;20020;-63
2021/04/15 13:03:34;;;;;;;6.28;2.55;;;22.20;61.70;;;;;;5071619;28;20025;-61
2021/04/15 13:06:09;;;;;;;8.30;2.85;;;22.20;60.80;;;;;;5071679;28;20490;-61
2021/04/15 13:08:42;;;;;;;6.78;2.88;;;22.20;61.90;;;;;;5071387;28;20025;-60
2021/04/15 13:11:18;;;;;;;7.63;2.85;;;22.10;61.30;;;;;;5060288;28;20105;-60
2021/04/15 13:13:47;;;;;;;6.03;2.45;;;22.10;61.30;;;;;;5071074;28;20020;-61
2021/04/15 13:16:33;;;;;;;;;;;22.10;62.00;;;;;;5071674;28;20379;-65
2021/04/15 13:19:04;;;;;;;7.55;2.70;;;22.10;61.30;;;;;;5071419;28;19908;-60
2021/04/15 13:21:35;;;;;;;4.80;2.50;;;22.10;60.80;;;;;;5071359;28;20123;-62
2021/04/15 13:24:40;;;;;;;5.03;2.47;;;22.10;61.90;;;;;;5071483;28;20016;-61
2021/04/15 13:27:35;;;;;;;6.43;2.42;;;22.00;61.60;;;;;;5071098;28;20378;-61
2021/04/15 13:30:22;;;;;;;7.22;2.33;;;22.00;61.90;;;;;;5071185;28;20052;-57
2021/04/15 13:33:07;;;;;;;5.20;3.05;;;22.00;61.60;;;;;;5070978;28;20395;-58
2021/04/15 13:35:55;;;;;;;6.85;2.80;;;22.00;61.20;;;;;;5070943;28;20039;-62
2021/04/15 13:38:28;;;;;;;8.10;3.00;;;22.00;61.60;;;;;;5061517;28;20060;-60
2021/04/15 13:41:06;;;;;;;5.18;2.60;;;22.00;62.20;;;;;;5070713;28;20020;-61
2021/04/15 13:43:44;;;;;;;9.07;2.40;;;21.90;61.80;;;;;;5071170;28;20102;-60
2021/04/15 13:48:51;;;;;;;5.05;2.40;;;21.90;61.80;;;;;;5063827;28;20036;-58
2021/04/15 13:51:25;;;;;;;9.20;2.97;;;21.90;61.60;;;;;;5070163;28;20483;-56
2021/04/15 13:53:52;;;;;;;6.88;2.50;;;21.90;62.50;;;;;;5070586;28;20055;-60
2021/04/15 13:56:35;;;;;;;5.50;2.70;;;21.90;60.80;;;;;;5070405;28;20028;-57
2021/04/15 13:59:05;;;;;;;8.68;2.65;;;21.90;62.10;;;;;;5070454;28;20043;-61
2021/04/15 14:01:35;;;;;;;4.20;2.10;;;21.80;60.70;;;;;;5070427;28;20021;-63
2021/04/15 14:04:02;;;;;;;6.10;2.80;;;21.80;62.60;;;;;;5070150;28;20483;-55
2021/04/15 14:06:31;;;;;;;4.57;2.83;;;21.80;61.90;;;;;;5070243;28;20039;-62
2021/04/15 14:09:12;;;;;;;5.55;2.35;;;21.80;62.40;;;;;;5069681;28;21348;-59
2021/04/15 14:11:54;;;;;;;6.63;2.33;;;21.80;61.10;;;;;;5060025;28;20044;-60
2021/04/15 14:14:36;;;;;;;8.65;3.05;;;21.80;60.60;;;;;;5066593;28;20277;-59